Time;durP1;ratioP1;P1;durP2;ratioP2;P2;SDS_P1;SDS_P2;PMS_P1;PMS_P2;Temp;Humidity;BMP_temperature;BMP_pressure;BME280_temperature;BME280_humidity;BME280_pressure;Samples;Min_cycle;Max_cycle;Signal;HPM_P1;HPM_P2
2022/11/29 00:01:26;;;;;;;30.10;18.50;;;7.70;99.90;;;;;;5031545;28;21266;-64
2022/11/29 00:03:53;;;;;;;30.93;19.17;;;7.70;99.90;;;;;;5032247;28;20231;-65
2022/11/29 00:06:26;;;;;;;35.93;19.87;;;7.70;99.90;;;;;;5033577;28;21162;-65
2022/11/29 00:08:55;;;;;;;36.80;18.73;;;7.70;99.90;;;;;;5032884;28;20207;-67
2022/11/29 00:14:15;;;;;;;36.97;19.17;;;7.70;99.90;;;;;;5035154;28;20258;-64
2022/11/29 00:16:42;;;;;;;33.07;18.87;;;7.70;99.90;;;;;;5030177;28;20280;-64
2022/11/29 00:19:11;;;;;;;39.67;19.07;;;7.70;99.90;;;;;;5018330;28;20193;-65
2022/11/29 00:21:38;;;;;;;40.63;18.80;;;7.70;99.90;;;;;;5028351;28;20277;-65
2022/11/29 00:24:05;;;;;;;33.73;18.77;;;7.70;1.00;;;;;;5033543;28;20187;-65
2022/11/29 00:26:32;;;;;;;43.50;19.37;;;7.70;1.00;;;;;;5028657;28;20840;-65
2022/11/29 00:28:59;;;;;;;43.47;18.03;;;7.70;1.00;;;;;;5031340;28;20226;-65
2022/11/29 00:31:31;;;;;;;39.30;19.90;;;7.70;1.00;;;;;;5032094;28;20192;-65
2022/11/29 00:34:00;;;;;;;42.73;20.73;;;7.70;1.00;;;;;;5048776;28;21187;-65
2022/11/29 00:36:28;;;;;;;46.13;19.47;;;7.70;1.00;;;;;;5032593;28;20207;-65
2022/11/29 00:38:55;;;;;;;50.93;20.90;;;7.70;1.00;;;;;;5031567;28;20652;-66
2022/11/29 00:41:22;;;;;;;49.90;19.47;;;7.70;1.00;;;;;;5032520;28;20562;-70
2022/11/29 00:43:49;;;;;;;50.07;21.10;;;7.70;1.00;;;;;;5031069;28;20270;-65
2022/11/29 00:46:16;;;;;;;59.30;20.30;;;7.70;1.00;;;;;;5033586;28;20275;-65
2022/11/29 00:48:43;;;;;;;42.87;20.27;;;7.70;1.00;;;;;;5026267;28;20203;-65
2022/11/29 00:51:10;;;;;;;37.13;20.10;;;7.70;1.00;;;;;;5039489;28;21490;-64
2022/11/29 00:53:37;;;;;;;51.53;20.53;;;7.70;1.00;;;;;;5036999;28;20287;-65
2022/11/29 00:56:06;;;;;;;44.13;20.33;;;7.70;1.00;;;;;;5027418;28;20203;-64
2022/11/29 00:58:34;;;;;;;52.63;20.20;;;7.70;1.00;;;;;;5036164;28;20232;-66
2022/11/29 01:01:01;;;;;;;45.77;20.97;;;7.60;1.00;;;;;;5026837;28;20950;-68
2022/11/29 01:03:28;;;;;;;57.23;24.27;;;7.60;1.00;;;;;;5023393;28;20660;-66
2022/11/29 01:06:04;;;;;;;56.17;23.40;;;7.60;1.00;;;;;;5037636;28;20685;-65
2022/11/29 01:08:31;;;;;;;52.67;22.20;;;7.60;1.00;;;;;;5033919;28;20278;-64
2022/11/29 01:11:12;;;;;;;49.90;23.20;;;7.60;1.00;;;;;;5030908;28;20223;-65
2022/11/29 01:13:39;;;;;;;51.07;23.37;;;7.70;1.00;;;;;;5033028;28;20720;-65
2022/11/29 01:16:07;;;;;;;47.63;22.57;;;7.70;1.00;;;;;;5018273;28;20222;-68
2022/11/29 01:18:35;;;;;;;48.17;22.93;;;7.80;12.90;;;;;;5027278;28;20315;-65
2022/11/29 01:21:23;;;;;;;34.33;21.63;;;7.70;47.20;;;;;;5019407;28;21010;-65
2022/11/29 01:23:51;;;;;;;47.00;22.20;;;7.80;94.60;;;;;;5024943;28;20193;-65
2022/11/29 01:26:25;;;;;;;48.97;21.97;;;7.80;99.90;;;;;;5031774;28;20200;-65
2022/11/29 01:28:53;;;;;;;50.77;22.53;;;7.80;99.90;;;;;;5034138;28;20322;-64
2022/11/29 01:31:23;;;;;;;49.27;23.37;;;7.80;99.90;;;;;;5017773;28;20206;-64
2022/11/29 01:33:54;;;;;;;58.30;22.00;;;7.80;99.90;;;;;;5030561;28;20286;-65
2022/11/29 01:36:21;;;;;;;56.87;21.13;;;7.80;99.90;;;;;;5032629;28;20192;-64
2022/11/29 01:38:48;;;;;;;52.13;23.00;;;7.70;99.90;;;;;;5034025;28;20315;-64
2022/11/29 01:41:21;;;;;;;66.13;25.03;;;7.70;99.90;;;;;;5029047;28;20586;-64
2022/11/29 01:44:00;;;;;;;56.40;23.93;;;7.70;99.90;;;;;;5028070;28;20218;-65
2022/11/29 01:46:35;;;;;;;70.67;24.10;;;7.70;99.90;;;;;;5033057;28;20203;-65
2022/11/29 01:49:19;;;;;;;56.13;23.43;;;7.70;99.90;;;;;;5029418;28;20188;-65
2022/11/29 01:51:59;;;;;;;55.60;23.20;;;7.70;99.90;;;;;;5026766;28;20290;-66
2022/11/29 01:54:28;;;;;;;43.70;24.03;;;7.60;99.90;;;;;;5032856;28;20223;-65
2022/11/29 01:56:57;;;;;;;45.60;23.33;;;7.60;99.90;;;;;;5030901;28;20187;-66
2022/11/29 01:59:27;;;;;;;53.93;23.50;;;7.60;99.90;;;;;;5035374;28;20691;-66
2022/11/29 02:02:04;;;;;;;55.50;23.73;;;7.60;99.90;;;;;;5035311;28;20180;-65
2022/11/29 02:04:34;;;;;;;54.13;23.73;;;7.60;99.90;;;;;;5019520;28;20737;-69
2022/11/29 02:07:01;;;;;;;83.20;25.13;;;7.60;99.90;;;;;;5035901;28;20734;-65
2022/11/29 02:09:28;;;;;;;53.53;25.13;;;7.60;1.00;;;;;;5026307;28;20231;-66
2022/11/29 02:12:05;;;;;;;55.70;25.50;;;7.50;1.00;;;;;;5035112;28;20188;-66
2022/11/29 02:15:06;;;;;;;58.90;26.30;;;7.50;1.00;;;;;;5035467;28;20226;-70
2022/11/29 02:17:55;;;;;;;42.70;24.73;;;7.50;1.00;;;;;;5030297;28;20738;-69
2022/11/29 02:20:54;;;;;;;42.93;25.00;;;7.60;1.00;;;;;;5032567;28;20224;-66
2022/11/29 02:24:02;;;;;;;52.33;25.80;;;7.60;1.00;;;;;;5033544;28;20308;-66
2022/11/29 02:26:54;;;;;;;51.97;25.83;;;7.70;1.00;;;;;;5007254;28;20195;-66
2022/11/29 02:29:27;;;;;;;50.40;25.17;;;7.70;1.00;;;;;;5011192;28;20971;-65
2022/11/29 02:32:15;;;;;;;61.87;28.20;;;7.70;1.00;;;;;;5032461;28;20679;-66
2022/11/29 02:34:51;;;;;;;50.80;25.73;;;7.70;1.00;;;;;;5031883;28;20680;-66
2022/11/29 02:37:33;;;;;;;59.13;31.17;;;7.80;1.00;;;;;;5019787;28;20210;-65
2022/11/29 02:40:27;;;;;;;73.97;38.00;;;7.80;1.00;;;;;;5014798;28;20651;-64
2022/11/29 02:43:09;;;;;;;42.93;24.60;;;7.80;1.00;;;;;;5016595;28;20684;-72
2022/11/29 02:45:45;;;;;;;47.27;23.60;;;7.80;1.00;;;;;;5026823;28;20232;-66
2022/11/29 02:48:24;;;;;;;39.67;21.80;;;7.80;1.00;;;;;;5034189;28;20270;-66
2022/11/29 02:51:13;;;;;;;43.77;22.87;;;7.80;1.00;;;;;;5031230;28;20192;-65
2022/11/29 02:54:08;;;;;;;40.37;22.27;;;7.80;1.00;;;;;;5028554;28;20209;-65
2022/11/29 02:56:48;;;;;;;42.97;22.43;;;7.80;1.00;;;;;;5029995;28;20196;-66
2022/11/29 02:59:15;;;;;;;43.13;22.83;;;7.90;1.00;;;;;;5030804;28;20210;-67
2022/11/29 03:02:03;;;;;;;39.53;21.80;;;7.90;1.00;;;;;;5035511;28;20259;-65
2022/11/29 03:05:12;;;;;;;39.63;21.87;;;7.90;1.00;;;;;;5033246;28;20211;-71
2022/11/29 03:08:10;;;;;;;36.50;20.87;;;7.90;1.00;;;;;;5029600;28;20214;-65
2022/11/29 03:11:13;;;;;;;36.33;21.83;;;7.90;1.00;;;;;;5026582;28;20270;-66
2022/11/29 03:13:55;;;;;;;39.60;23.50;;;7.90;1.00;;;;;;5034939;28;20198;-65
2022/11/29 03:16:34;;;;;;;45.00;22.70;;;7.90;1.00;;;;;;5030170;28;20231;-66
2022/11/29 03:19:42;;;;;;;37.13;22.03;;;7.90;1.00;;;;;;5026016;28;20238;-65
2022/11/29 03:22:24;;;;;;;38.77;22.30;;;7.90;1.00;;;;;;5028210;28;20219;-65
2022/11/29 03:25:01;;;;;;;40.67;22.53;;;7.90;1.00;;;;;;5047246;28;20830;-67
2022/11/29 03:27:54;;;;;;;52.10;24.43;;;7.90;1.00;;;;;;5032410;28;20594;-66
2022/11/29 03:30:21;;;;;;;49.50;24.00;;;8.00;1.00;;;;;;5035926;28;20881;-67
2022/11/29 03:32:59;;;;;;;56.87;24.83;;;7.90;1.00;;;;;;5031952;28;20188;-67
2022/11/29 03:35:42;;;;;;;48.90;24.17;;;7.90;1.00;;;;;;5029342;28;20193;-64
2022/11/29 03:38:27;;;;;;;45.90;22.87;;;7.90;1.00;;;;;;5032501;28;20805;-63
2022/11/29 03:41:13;;;;;;;51.97;23.83;;;7.90;1.00;;;;;;5033514;28;20207;-63
2022/11/29 03:43:50;;;;;;;51.23;23.77;;;8.00;1.00;;;;;;5034422;28;20764;-63
2022/11/29 03:46:55;;;;;;;53.33;22.53;;;8.00;1.00;;;;;;5031894;28;20223;-63
2022/11/29 03:49:37;;;;;;;46.10;22.43;;;8.00;1.00;;;;;;5031320;28;20636;-64
2022/11/29 03:52:23;;;;;;;47.37;23.37;;;8.00;1.00;;;;;;5031443;28;20822;-63
2022/11/29 03:55:15;;;;;;;42.17;22.20;;;8.00;1.00;;;;;;5031624;28;20228;-63
2022/11/29 03:58:00;;;;;;;47.00;22.50;;;8.00;1.00;;;;;;5029918;28;20204;-64
2022/11/29 04:00:43;;;;;;;42.67;21.90;;;8.00;1.00;;;;;;5031793;28;20291;-63
2022/11/29 04:03:19;;;;;;;49.33;23.37;;;8.00;1.00;;;;;;5031020;28;20191;-63
2022/11/29 04:05:58;;;;;;;43.20;22.57;;;8.00;1.00;;;;;;5029687;28;20267;-63
2022/11/29 04:08:55;;;;;;;48.93;23.20;;;8.00;1.00;;;;;;5032099;28;20267;-62
2022/11/29 04:11:28;;;;;;;45.80;23.30;;;8.00;1.00;;;;;;5030260;28;20291;-63
2022/11/29 04:14:32;;;;;;;50.47;23.83;;;8.00;1.00;;;;;;5031801;28;20231;-63
2022/11/29 04:17:20;;;;;;;40.63;20.97;;;8.00;1.00;;;;;;5030107;28;20219;-64
2022/11/29 04:19:47;;;;;;;53.67;23.73;;;8.00;1.00;;;;;;5024916;28;20219;-63
2022/11/29 04:22:47;;;;;;;51.03;23.67;;;8.00;1.00;;;;;;5030822;28;20286;-64
2022/11/29 04:25:26;;;;;;;51.10;22.37;;;8.00;1.00;;;;;;5034261;28;20192;-62
2022/11/29 04:28:15;;;;;;;42.83;25.03;;;8.00;1.00;;;;;;5037676;28;20231;-63
2022/11/29 04:31:21;;;;;;;42.37;22.03;;;8.00;1.00;;;;;;5035011;28;20199;-61
2022/11/29 04:34:09;;;;;;;40.10;21.37;;;8.00;1.00;;;;;;5037180;28;20196;-62
2022/11/29 04:36:36;;;;;;;40.20;19.80;;;8.00;1.00;;;;;;5038311;28;20194;-63
2022/11/29 04:39:06;;;;;;;36.37;20.57;;;8.00;1.00;;;;;;5037364;28;20216;-64
2022/11/29 04:41:54;;;;;;;39.80;20.67;;;8.00;1.00;;;;;;5032725;28;20215;-63
2022/11/29 04:44:40;;;;;;;39.77;21.23;;;8.00;1.00;;;;;;5017784;28;20299;-62
2022/11/29 04:47:38;;;;;;;39.83;20.90;;;8.00;1.00;;;;;;5034926;28;20188;-62
2022/11/29 04:50:16;;;;;;;40.03;20.33;;;8.00;1.00;;;;;;5033456;28;20192;-64
2022/11/29 04:53:22;;;;;;;38.90;20.57;;;8.00;1.00;;;;;;5032771;28;20227;-62
2022/11/29 04:55:55;;;;;;;38.60;20.37;;;8.00;1.00;;;;;;5030878;28;20302;-61
2022/11/29 04:58:46;;;;;;;38.50;19.43;;;8.00;1.00;;;;;;5028753;28;20225;-62
2022/11/29 05:01:28;;;;;;;37.93;20.93;;;8.00;1.00;;;;;;5030966;28;20207;-64
2022/11/29 05:04:29;;;;;;;38.07;19.77;;;8.00;1.00;;;;;;5020410;28;20246;-62
2022/11/29 05:07:05;;;;;;;37.23;20.30;;;8.00;1.00;;;;;;5033633;28;20686;-63
2022/11/29 05:09:50;;;;;;;46.07;21.43;;;8.00;1.00;;;;;;5033116;28;20215;-65
2022/11/29 05:12:36;;;;;;;44.73;21.47;;;8.00;1.00;;;;;;5029253;28;20735;-62
2022/11/29 05:15:25;;;;;;;38.43;21.60;;;8.00;1.00;;;;;;5033760;28;20198;-63
2022/11/29 05:18:02;;;;;;;41.30;21.50;;;8.00;1.00;;;;;;5025410;28;20184;-63
2022/11/29 05:20:45;;;;;;;42.27;21.33;;;8.00;1.00;;;;;;5033975;28;20199;-62
2022/11/29 05:23:27;;;;;;;36.23;21.37;;;8.00;1.00;;;;;;5029767;28;20192;-63
2022/11/29 05:26:02;;;;;;;35.60;20.67;;;8.00;1.00;;;;;;5031304;28;20198;-62
2022/11/29 05:28:42;;;;;;;36.90;20.70;;;7.90;1.00;;;;;;5007067;28;20224;-62
2022/11/29 05:31:39;;;;;;;34.07;20.07;;;8.00;1.00;;;;;;5029895;28;20187;-63
2022/11/29 05:34:38;;;;;;;37.83;20.90;;;8.00;1.00;;;;;;5032764;28;20219;-62
2022/11/29 05:37:05;;;;;;;37.43;20.77;;;8.00;1.00;;;;;;5026146;28;20216;-63
2022/11/29 05:40:01;;;;;;;39.63;22.30;;;8.00;1.00;;;;;;5024298;28;20654;-64
2022/11/29 05:42:35;;;;;;;47.90;26.70;;;8.00;1.00;;;;;;5030627;28;21229;-62
2022/11/29 05:45:21;;;;;;;45.03;28.13;;;8.00;1.00;;;;;;5019114;28;20832;-69
2022/11/29 05:48:07;;;;;;;37.30;23.57;;;8.00;1.00;;;;;;5032957;28;20188;-62
2022/11/29 05:50:44;;;;;;;31.23;20.03;;;8.00;1.00;;;;;;5027021;28;20198;-62
2022/11/29 05:53:22;;;;;;;36.10;20.87;;;8.10;1.00;;;;;;5026682;28;20210;-63
2022/11/29 05:56:03;;;;;;;35.87;20.80;;;8.10;1.00;;;;;;5028973;28;20203;-62
2022/11/29 05:58:58;;;;;;;42.80;20.00;;;8.10;1.00;;;;;;5034018;28;20207;-64
2022/11/29 06:01:44;;;;;;;38.20;19.93;;;8.10;1.00;;;;;;5023880;28;20660;-62
2022/11/29 06:04:24;;;;;;;40.60;20.13;;;8.10;1.00;;;;;;5019274;28;20194;-63
2022/11/29 06:07:18;;;;;;;43.73;21.93;;;8.10;1.00;;;;;;5029190;28;20269;-61
2022/11/29 06:09:59;;;;;;;39.77;22.13;;;8.10;1.00;;;;;;5033121;28;20591;-63
2022/11/29 06:12:30;;;;;;;38.40;20.70;;;8.10;1.00;;;;;;5033561;28;20219;-62
2022/11/29 06:15:30;;;;;;;36.97;20.47;;;8.10;1.00;;;;;;5006566;28;20198;-64
2022/11/29 06:18:26;;;;;;;43.43;22.23;;;8.10;1.00;;;;;;5028750;28;20817;-62
2022/11/29 06:21:21;;;;;;;36.80;21.70;;;8.10;1.00;;;;;;5032329;28;20655;-63
2022/11/29 06:24:00;;;;;;;36.93;21.73;;;8.10;1.00;;;;;;5011808;28;20677;-62
2022/11/29 06:26:40;;;;;;;49.47;22.87;;;8.10;1.00;;;;;;5027027;28;20188;-62
2022/11/29 06:29:42;;;;;;;50.43;23.67;;;8.10;1.00;;;;;;5032404;28;20226;-63
2022/11/29 06:32:46;;;;;;;57.13;22.80;;;8.10;1.00;;;;;;5028538;28;20218;-63
2022/11/29 06:35:50;;;;;;;48.63;21.47;;;8.10;1.00;;;;;;5021724;28;20209;-62
2022/11/29 06:38:27;;;;;;;49.43;21.87;;;8.10;1.00;;;;;;5035758;28;20199;-63
2022/11/29 06:40:56;;;;;;;52.93;22.80;;;8.20;1.00;;;;;;5034209;28;20196;-63
2022/11/29 06:43:29;;;;;;;56.07;23.50;;;8.20;1.00;;;;;;5034348;28;20213;-62
2022/11/29 06:46:09;;;;;;;54.57;24.37;;;8.10;1.00;;;;;;5034315;28;20656;-63
2022/11/29 06:48:57;;;;;;;55.80;22.67;;;8.10;1.00;;;;;;5033135;28;20200;-63
2022/11/29 06:51:48;;;;;;;55.87;23.27;;;8.10;1.00;;;;;;5032169;28;20230;-64
2022/11/29 06:54:27;;;;;;;59.53;24.60;;;8.10;1.00;;;;;;5035045;28;20206;-62
2022/11/29 06:57:05;;;;;;;62.17;23.80;;;8.10;1.00;;;;;;5031012;28;20196;-66
2022/11/29 06:59:44;;;;;;;66.97;25.13;;;8.10;1.00;;;;;;5033228;28;20645;-62
2022/11/29 07:02:35;;;;;;;63.63;24.67;;;8.10;1.00;;;;;;5027623;28;20187;-63
2022/11/29 07:05:13;;;;;;;76.50;26.40;;;8.10;1.00;;;;;;5006593;28;20972;-62
2022/11/29 07:07:41;;;;;;;99.63;44.53;;;8.10;1.00;;;;;;5024757;28;20274;-62
2022/11/29 07:10:18;;;;;;;73.37;29.13;;;8.10;2.50;;;;;;5016092;28;20249;-62
2022/11/29 07:12:47;;;;;;;67.50;25.50;;;8.10;1.00;;;;;;5034387;28;20215;-63
2022/11/29 07:15:17;;;;;;;69.43;26.40;;;8.10;1.00;;;;;;5030827;28;20188;-63
2022/11/29 07:18:18;;;;;;;61.47;25.60;;;8.10;1.00;;;;;;5025400;28;20283;-67
2022/11/29 07:21:17;;;;;;;71.23;25.00;;;8.10;1.00;;;;;;5012890;28;20196;-67
2022/11/29 07:23:56;;;;;;;70.03;25.63;;;8.10;1.00;;;;;;5025272;28;20287;-63
2022/11/29 07:26:37;;;;;;;62.27;26.13;;;8.10;1.90;;;;;;5033010;28;20605;-64
2022/11/29 07:29:23;;;;;;;58.73;25.80;;;8.10;1.00;;;;;;5032454;28;20242;-63
2022/11/29 07:32:03;;;;;;;65.93;25.43;;;8.10;1.00;;;;;;5028427;28;20188;-63
2022/11/29 07:35:09;;;;;;;65.63;24.53;;;8.10;1.00;;;;;;5030395;28;20203;-63
2022/11/29 07:37:49;;;;;;;71.43;23.73;;;8.10;1.00;;;;;;5032961;28;20307;-67
2022/11/29 07:40:25;;;;;;;66.90;24.70;;;8.10;1.00;;;;;;5022129;28;20588;-62
2022/11/29 07:43:05;;;;;;;68.00;25.27;;;8.10;1.00;;;;;;5027120;28;20182;-64
2022/11/29 07:45:36;;;;;;;68.73;25.10;;;8.10;1.00;;;;;;5030116;28;20228;-62
2022/11/29 07:48:03;;;;;;;68.77;23.90;;;8.10;1.00;;;;;;5028543;28;20271;-63
2022/11/29 07:50:30;;;;;;;62.33;24.33;;;8.10;1.00;;;;;;5025942;28;20202;-63
2022/11/29 07:52:58;;;;;;;59.73;23.73;;;8.20;1.00;;;;;;5013264;28;20212;-64
2022/11/29 07:55:25;;;;;;;63.57;23.60;;;8.10;1.00;;;;;;5030300;28;20196;-63
2022/11/29 07:57:52;;;;;;;66.03;22.83;;;8.10;1.00;;;;;;5032678;28;20219;-66
2022/11/29 08:00:20;;;;;;;62.90;23.93;;;8.10;1.00;;;;;;5030244;28;20939;-64
2022/11/29 08:02:48;;;;;;;59.77;23.47;;;8.20;1.00;;;;;;5030890;28;20220;-62
2022/11/29 08:05:16;;;;;;;51.30;20.57;;;8.20;1.00;;;;;;5028765;28;20293;-62
2022/11/29 08:07:43;;;;;;;54.77;22.23;;;8.20;1.00;;;;;;5031443;28;20306;-62
2022/11/29 08:10:13;;;;;;;61.70;21.80;;;8.20;1.00;;;;;;5027269;28;20252;-62
2022/11/29 08:12:51;;;;;;;57.53;22.10;;;8.20;1.00;;;;;;5009780;28;20290;-63
2022/11/29 08:15:20;;;;;;;50.70;21.30;;;8.20;1.00;;;;;;5033394;28;20999;-69
2022/11/29 08:17:47;;;;;;;58.63;22.67;;;8.30;1.00;;;;;;5032579;28;20196;-63
2022/11/29 08:20:15;;;;;;;50.30;21.20;;;8.30;1.00;;;;;;5028139;28;20207;-62
2022/11/29 08:22:42;;;;;;;63.57;22.43;;;8.30;1.00;;;;;;5027724;28;20200;-68
2022/11/29 08:25:10;;;;;;;58.60;23.73;;;8.20;99.90;;;;;;5029394;28;20195;-63
2022/11/29 08:27:37;;;;;;;55.53;22.33;;;8.20;99.90;;;;;;5032914;28;20234;-63
2022/11/29 08:30:06;;;;;;;60.37;22.50;;;8.30;99.90;;;;;;5031095;28;20283;-64
2022/11/29 08:32:33;;;;;;;57.73;21.60;;;8.30;99.90;;;;;;5019874;28;20231;-68
2022/11/29 08:35:00;;;;;;;59.60;21.90;;;8.30;99.90;;;;;;5028684;28;20202;-63
2022/11/29 08:37:27;;;;;;;52.07;20.53;;;8.40;99.90;;;;;;5033140;28;20207;-63
2022/11/29 08:39:54;;;;;;;47.03;19.53;;;8.40;99.90;;;;;;5032587;28;20206;-63
2022/11/29 08:42:21;;;;;;;54.90;21.23;;;8.40;99.90;;;;;;5031720;28;20279;-63
2022/11/29 08:44:48;;;;;;;52.37;20.57;;;8.40;82.50;;;;;;5030102;28;20677;-65
2022/11/29 08:50:15;;;;;;;54.33;19.67;;;8.40;1.00;;;;;;5027254;28;20203;-62
2022/11/29 08:55:33;;;;;;;58.17;20.67;;;8.40;1.00;;;;;;5033933;28;20562;-62
2022/11/29 08:58:03;;;;;;;48.93;21.47;;;8.40;99.90;;;;;;5032197;28;20204;-65
2022/11/29 09:00:31;;;;;;;49.67;18.83;;;8.40;99.90;;;;;;5028175;28;20270;-64
2022/11/29 09:03:58;;;;;;;47.00;18.77;;;8.50;92.40;;;;;;5030397;28;20192;-62
2022/11/29 09:05:44;;;;;;;48.77;19.83;;;8.50;68.60;;;;;;5045961;28;20200;-65
2022/11/29 09:08:11;;;;;;;48.07;20.37;;;8.60;1.00;;;;;;5033531;28;20716;-62
2022/11/29 09:10:40;;;;;;;49.77;21.30;;;8.60;1.00;;;;;;5031804;28;20334;-63
2022/11/29 09:13:08;;;;;;;53.43;18.27;;;8.60;1.00;;;;;;5047505;28;20216;-62
2022/11/29 09:15:40;;;;;;;49.13;20.13;;;8.60;1.00;;;;;;5027095;28;20546;-66
2022/11/29 09:18:07;;;;;;;49.07;18.80;;;8.60;99.90;;;;;;5033700;28;20184;-66
2022/11/29 09:20:34;;;;;;;50.07;18.30;;;8.60;58.00;;;;;;5035555;28;20612;-66
2022/11/29 09:23:02;;;;;;;52.83;18.80;;;8.60;1.00;;;;;;5034416;28;20271;-62
2022/11/29 09:25:29;;;;;;;53.37;19.63;;;8.60;1.00;;;;;;5031586;28;20547;-64
2022/11/29 09:28:01;;;;;;;51.60;17.70;;;8.60;1.00;;;;;;5034299;28;20303;-65
2022/11/29 09:30:30;;;;;;;48.53;18.57;;;8.60;1.00;;;;;;5022081;28;20196;-64
2022/11/29 09:33:01;;;;;;;47.43;19.97;;;8.70;1.00;;;;;;5034558;28;21362;-64
2022/11/29 09:35:29;;;;;;;43.10;17.70;;;8.70;1.00;;;;;;5034728;28;20224;-65
2022/11/29 09:37:56;;;;;;;40.03;17.53;;;8.80;1.00;;;;;;5014155;28;20192;-65
2022/11/29 09:40:30;;;;;;;42.17;16.67;;;8.80;99.90;;;;;;5029024;28;20216;-64
2022/11/29 09:43:23;;;;;;;46.07;16.27;;;8.80;99.90;;;;;;5018071;28;20715;-65
2022/11/29 09:46:00;;;;;;;42.00;14.50;;;8.80;99.90;;;;;;5007528;28;20196;-63
2022/11/29 09:48:27;;;;;;;46.43;16.33;;;8.90;42.50;;;;;;5028311;28;20220;-65
2022/11/29 09:51:16;;;;;;;39.40;15.03;;;8.80;1.00;;;;;;5029915;28;20200;-64
2022/11/29 09:54:04;;;;;;;45.10;15.00;;;8.90;1.00;;;;;;5032027;28;20219;-65
2022/11/29 09:56:44;;;;;;;39.37;14.27;;;8.90;1.00;;;;;;5036773;28;20837;-64
2022/11/29 09:59:21;;;;;;;34.07;13.13;;;9.00;1.00;;;;;;5028944;28;20196;-65
2022/11/29 10:02:11;;;;;;;44.47;19.50;;;9.00;1.00;;;;;;5031881;28;20196;-65
2022/11/29 10:04:59;;;;;;;39.03;15.43;;;9.10;1.00;;;;;;5031813;28;20547;-65
2022/11/29 10:07:33;;;;;;;40.17;14.77;;;9.20;1.00;;;;;;5005986;28;20208;-64
2022/11/29 10:10:14;;;;;;;35.57;13.80;;;9.30;99.90;;;;;;5031059;28;20831;-65
2022/11/29 10:12:51;;;;;;;40.67;13.10;;;9.30;99.90;;;;;;5026635;28;20207;-64
2022/11/29 10:15:22;;;;;;;30.47;13.47;;;9.40;99.90;;;;;;5029559;28;20682;-65
2022/11/29 10:18:11;;;;;;;39.47;13.47;;;9.40;99.90;;;;;;5018799;28;20291;-64
2022/11/29 10:20:41;;;;;;;31.87;10.70;;;9.40;99.90;;;;;;5029356;28;20214;-65
2022/11/29 10:23:23;;;;;;;31.33;11.50;;;9.50;99.90;;;;;;5032918;28;20751;-64
2022/11/29 10:25:53;;;;;;;28.10;9.90;;;9.60;99.90;;;;;;5031337;28;20241;-64
2022/11/29 10:28:24;;;;;;;36.27;10.67;;;9.70;99.90;;;;;;5032632;28;20239;-65
2022/11/29 10:30:57;;;;;;;31.50;11.40;;;9.80;99.90;;;;;;5033980;28;20688;-65
2022/11/29 10:33:31;;;;;;;33.30;10.50;;;9.70;99.90;;;;;;5051816;28;20201;-64
2022/11/29 10:36:03;;;;;;;32.63;10.33;;;9.80;99.90;;;;;;5032649;28;20199;-64
2022/11/29 10:38:29;;;;;;;32.63;10.07;;;9.90;99.90;;;;;;5033743;28;20183;-63
2022/11/29 10:41:12;;;;;;;35.17;10.23;;;9.90;70.30;;;;;;5022426;28;20287;-64
2022/11/29 10:43:39;;;;;;;29.73;10.27;;;10.10;92.50;;;;;;5024493;28;20200;-64
2022/11/29 10:46:14;;;;;;;30.67;9.23;;;10.30;49.70;;;;;;5035854;28;20810;-64
2022/11/29 10:48:41;;;;;;;33.77;9.70;;;10.40;45.80;;;;;;5033167;28;20223;-65
2022/11/29 10:51:16;;;;;;;26.87;9.83;;;10.50;27.70;;;;;;5033171;28;20196;-65
2022/11/29 10:53:45;;;;;;;29.10;9.60;;;10.50;27.10;;;;;;5030934;28;20686;-64
2022/11/29 10:56:21;;;;;;;37.50;10.07;;;10.30;18.30;;;;;;5033735;28;20569;-63
2022/11/29 10:59:19;;;;;;;26.63;10.30;;;10.20;14.30;;;;;;5024222;28;20230;-64
2022/11/29 11:01:46;;;;;;;30.73;10.23;;;10.10;15.10;;;;;;5033989;28;20219;-63
2022/11/29 11:04:35;;;;;;;39.20;12.90;;;10.00;18.90;;;;;;5032299;28;20191;-64
2022/11/29 11:07:05;;;;;;;32.53;12.30;;;9.90;38.40;;;;;;5029876;28;20192;-64
2022/11/29 11:09:45;;;;;;;37.30;12.93;;;9.60;5.80;;;;;;5026926;28;20215;-65
2022/11/29 11:12:12;;;;;;;32.63;12.20;;;9.50;22.70;;;;;;5027272;28;20195;-64
2022/11/29 11:14:40;;;;;;;37.40;13.57;;;9.50;17.90;;;;;;5027445;28;20279;-64
2022/11/29 11:17:29;;;;;;;50.23;13.07;;;9.50;48.00;;;;;;5031592;28;20288;-66
2022/11/29 11:20:18;;;;;;;40.07;14.13;;;9.60;56.60;;;;;;5014665;28;20218;-63
2022/11/29 11:23:18;;;;;;;37.73;13.80;;;9.70;90.40;;;;;;5023460;28;20188;-62
2022/11/29 11:25:48;;;;;;;41.47;14.83;;;9.60;48.00;;;;;;5030711;28;20192;-64
2022/11/29 11:28:28;;;;;;;44.50;15.50;;;9.60;36.70;;;;;;5006429;28;20735;-65
2022/11/29 11:31:07;;;;;;;40.27;14.60;;;9.80;53.50;;;;;;5013679;28;20188;-63
2022/11/29 11:33:40;;;;;;;43.70;15.23;;;9.70;15.60;;;;;;4998170;28;20199;-64
2022/11/29 11:36:16;;;;;;;51.20;14.87;;;9.60;29.70;;;;;;5034665;28;20192;-62
2022/11/29 11:38:57;;;;;;;34.60;13.60;;;9.60;55.30;;;;;;5031845;28;20192;-62
2022/11/29 11:44:27;;;;;;;42.00;16.00;;;9.50;58.10;;;;;;5026117;28;20187;-65
2022/11/29 11:47:21;;;;;;;46.10;16.67;;;9.40;62.90;;;;;;5028934;28;20194;-63
2022/11/29 11:50:03;;;;;;;38.23;13.70;;;9.40;99.90;;;;;;5027087;28;20183;-63
2022/11/29 11:52:39;;;;;;;32.90;14.03;;;9.40;94.10;;;;;;5032752;28;20242;-62
2022/11/29 11:55:20;;;;;;;36.57;14.23;;;9.40;95.00;;;;;;5028003;28;20656;-63
2022/11/29 11:58:01;;;;;;;37.30;14.40;;;9.40;86.50;;;;;;5029294;28;20951;-63
2022/11/29 12:00:41;;;;;;;43.17;16.47;;;9.50;99.90;;;;;;5030153;28;20207;-62
2022/11/29 12:03:56;;;;;;;41.03;14.80;;;9.60;99.90;;;;;;5024177;28;21149;-64
2022/11/29 12:06:41;;;;;;;47.57;16.83;;;9.50;99.90;;;;;;5030467;28;20243;-64
2022/11/29 12:09:17;;;;;;;37.57;16.77;;;9.50;99.90;;;;;;5021467;28;20239;-63
2022/11/29 12:12:08;;;;;;;50.50;28.00;;;9.60;99.90;;;;;;5030107;28;20214;-63
2022/11/29 12:14:51;;;;;;;50.60;20.57;;;9.60;99.90;;;;;;5015735;28;20984;-63
2022/11/29 12:17:48;;;;;;;47.23;17.67;;;9.70;99.90;;;;;;5032581;28;20605;-62
2022/11/29 12:20:23;;;;;;;36.93;15.30;;;9.80;99.90;;;;;;5029817;28;20204;-61
2022/11/29 12:23:12;;;;;;;44.43;17.90;;;9.80;99.90;;;;;;5035226;28;20194;-61
2022/11/29 12:26:04;;;;;;;50.53;17.70;;;9.80;99.90;;;;;;5026437;28;20199;-64
2022/11/29 12:28:34;;;;;;;48.80;17.37;;;9.70;99.90;;;;;;5025250;28;20727;-63
2022/11/29 12:31:22;;;;;;;40.10;17.87;;;9.60;99.90;;;;;;5029811;28;20754;-64
2022/11/29 12:34:05;;;;;;;47.73;17.70;;;9.60;99.90;;;;;;5031333;28;20286;-61
2022/11/29 12:36:58;;;;;;;41.67;17.00;;;9.50;99.90;;;;;;5028372;28;20196;-63
2022/11/29 12:39:46;;;;;;;46.40;18.00;;;9.50;99.90;;;;;;5027520;28;20266;-63
2022/11/29 12:42:29;;;;;;;47.90;18.67;;;9.40;99.90;;;;;;5018058;28;20192;-63
2022/11/29 12:45:20;;;;;;;48.03;18.73;;;9.40;99.90;;;;;;5031637;28;20194;-63
2022/11/29 12:47:47;;;;;;;51.03;18.43;;;9.30;99.90;;;;;;5026785;28;20215;-63
2022/11/29 12:50:32;;;;;;;47.83;18.23;;;9.40;99.90;;;;;;5032631;28;20644;-61
2022/11/29 12:53:26;;;;;;;49.03;18.93;;;9.40;99.90;;;;;;5020020;28;20275;-61
2022/11/29 12:56:19;;;;;;;52.27;21.50;;;9.50;99.90;;;;;;5034217;28;20206;-63
2022/11/29 12:59:05;;;;;;;57.77;25.97;;;9.50;99.90;;;;;;5035103;28;20400;-63
2022/11/29 13:01:53;;;;;;;53.07;20.60;;;9.50;99.90;;;;;;5033196;28;20298;-63
2022/11/29 13:04:37;;;;;;;58.60;19.97;;;9.50;99.90;;;;;;5030526;28;20194;-64
2022/11/29 13:07:11;;;;;;;57.27;21.43;;;9.40;99.90;;;;;;5037676;28;20196;-62
2022/11/29 13:10:22;;;;;;;54.13;20.70;;;9.30;99.90;;;;;;5031495;28;20315;-63
2022/11/29 13:13:01;;;;;;;58.10;19.83;;;9.30;99.90;;;;;;5016443;28;20204;-63
2022/11/29 13:15:48;;;;;;;54.80;22.87;;;9.20;99.90;;;;;;5019876;28;20210;-63
2022/11/29 13:18:28;;;;;;;50.93;19.07;;;9.20;99.90;;;;;;5009201;28;20204;-62
2022/11/29 13:21:11;;;;;;;57.27;20.83;;;9.20;99.90;;;;;;5033188;28;20196;-62
2022/11/29 13:23:55;;;;;;;54.27;21.47;;;9.10;99.90;;;;;;5032154;28;21042;-64
2022/11/29 13:26:42;;;;;;;64.23;21.53;;;9.10;99.90;;;;;;5019517;28;20246;-63
2022/11/29 13:29:15;;;;;;;62.23;22.17;;;9.10;99.90;;;;;;5045115;28;20635;-64
2022/11/29 13:31:43;;;;;;;66.97;22.03;;;9.10;1.00;;;;;;5032963;28;20206;-62
2022/11/29 13:34:40;;;;;;;60.67;23.67;;;9.00;1.00;;;;;;5016260;28;20195;-62
2022/11/29 13:37:22;;;;;;;55.77;20.53;;;9.00;1.00;;;;;;5030030;28;20272;-62
2022/11/29 13:40:16;;;;;;;65.20;31.13;;;9.00;1.00;;;;;;5035153;28;20667;-62
2022/11/29 13:42:51;;;;;;;51.37;19.40;;;8.90;1.00;;;;;;5030703;28;20184;-65
2022/11/29 13:45:18;;;;;;;54.13;19.37;;;8.90;43.50;;;;;;5036503;28;20209;-62
2022/11/29 13:47:53;;;;;;;51.10;20.53;;;8.90;99.90;;;;;;5036153;28;20484;-63
2022/11/29 13:50:38;;;;;;;54.33;21.47;;;8.80;99.90;;;;;;5036652;28;20213;-63
2022/11/29 13:53:12;;;;;;;59.23;24.17;;;8.80;99.90;;;;;;5031438;28;20189;-62
2022/11/29 13:55:48;;;;;;;52.00;20.70;;;8.90;99.90;;;;;;5034358;28;20199;-64